createdAt,value
2018-09-24T00:01:16.658Z," 9.73"
2018-09-24T00:06:12.527Z," 9.69"
2018-09-24T00:11:08.597Z," 9.73"
2018-09-24T00:16:05.015Z," 9.64"
2018-09-24T00:21:00.413Z," 9.64"
2018-09-24T00:25:57.393Z," 9.51"
2018-09-24T00:30:52.769Z," 9.50"
2018-09-24T00:35:48.482Z," 9.54"
2018-09-24T00:40:44.352Z," 9.48"
2018-09-24T00:45:42.139Z," 9.46"
2018-09-24T00:50:37.646Z," 9.39"
2018-09-24T00:55:33.560Z," 9.44"
2018-09-24T01:00:29.421Z," 9.37"
2018-09-24T01:05:26.007Z," 9.44"
2018-09-24T01:10:21.430Z," 9.37"
2018-09-24T01:15:16.869Z," 9.32"
2018-09-24T01:20:13.657Z," 9.32"
2018-09-24T01:25:10.354Z," 9.36"
2018-09-24T01:30:07.019Z," 9.32"
2018-09-24T01:35:02.262Z," 9.36"
2018-09-24T01:39:58.148Z," 9.32"
2018-09-24T01:44:54.319Z," 9.44"
2018-09-24T01:49:50.076Z," 9.46"
2018-09-24T01:54:46.718Z," 9.39"
2018-09-24T01:59:42.121Z," 9.39"
2018-09-24T02:04:37.791Z," 9.37"
2018-09-24T02:09:33.605Z," 9.32"
2018-09-24T02:14:29.281Z," 9.23"
2018-09-24T02:19:25.395Z," 9.19"
2018-09-24T02:24:21.249Z," 9.22"
2018-09-24T02:29:17.530Z," 9.19"
2018-09-24T02:34:14.140Z," 9.19"
2018-09-24T02:39:09.691Z," 9.08"
2018-09-24T02:44:05.696Z," 9.06"
2018-09-24T02:49:01.499Z," 9.06"
2018-09-24T02:53:58.044Z," 9.08"
2018-09-24T02:58:53.395Z," 9.21"
2018-09-24T03:03:49.506Z," 9.06"
2018-09-24T03:08:45.296Z," 8.99"
2018-09-24T03:13:41.262Z," 8.94"
2018-09-24T03:18:37.036Z," 8.88"
2018-09-24T03:23:33.079Z," 8.82"
2018-09-24T03:28:29.490Z," 8.78"
2018-09-24T03:33:26.910Z," 8.78"
2018-09-24T03:38:23.378Z," 8.74"
2018-09-24T03:43:18.893Z," 8.73"
2018-09-24T03:48:14.485Z," 8.61"
2018-09-24T03:53:11.297Z," 8.73"
2018-09-24T03:58:06.488Z," 8.73"
2018-09-24T04:03:02.419Z," 8.71"
2018-09-24T04:07:58.355Z," 8.63"
2018-09-24T04:12:54.092Z," 8.70"
2018-09-24T04:17:50.705Z," 8.49"
2018-09-24T04:22:46.983Z," 8.45"
2018-09-24T04:27:42.282Z," 8.37"
2018-09-24T04:32:37.917Z," 8.26"
2018-09-24T04:37:34.249Z," 8.36"
2018-09-24T04:42:31.539Z," 8.28"
2018-09-24T04:47:27.094Z," 8.27"
2018-09-24T04:52:23.515Z," 8.19"
2018-09-24T04:57:18.960Z," 8.18"
2018-09-24T05:02:14.705Z," 8.13"
2018-09-24T05:07:10.427Z," 8.19"
2018-09-24T05:12:06.339Z," 8.09"
2018-09-24T05:17:02.489Z," 8.13"
2018-09-24T05:21:58.427Z," 8.16"
2018-09-24T05:26:54.936Z," 8.10"
2018-09-24T05:31:50.558Z," 8.08"
2018-09-24T05:36:46.249Z," 8.20"
2018-09-24T05:41:42.633Z," 8.13"
2018-09-24T05:46:38.932Z," 8.16"
2018-09-24T05:51:34.720Z," 8.27"
2018-09-24T05:56:30.620Z," 8.28"
2018-09-24T06:01:27.689Z," 8.38"
2018-09-24T06:06:24.396Z," 8.37"
2018-09-24T06:11:20.545Z," 8.60"
2018-09-24T06:16:16.409Z," 8.60"
2018-09-24T06:21:12.262Z," 8.56"
2018-09-24T06:26:08.097Z," 8.78"
2018-09-24T06:31:04.935Z," 8.85"
2018-09-24T06:36:00.717Z," 8.97"
2018-09-24T06:40:57.343Z," 9.26"
2018-09-24T06:45:53.940Z," 9.54"
2018-09-24T06:50:50.116Z," 9.47"
2018-09-24T06:55:45.948Z," 9.54"
2018-09-24T07:00:43.194Z," 9.58"
2018-09-24T07:05:38.682Z," 9.66"
2018-09-24T07:10:34.589Z," 9.89"
2018-09-24T07:15:30.400Z," 9.89"
2018-09-24T07:20:27.354Z,10.04
2018-09-24T07:25:22.770Z,10.12
2018-09-24T07:30:18.316Z,10.31
2018-09-24T07:35:15.345Z,10.56
2018-09-24T07:40:12.181Z,11.04
2018-09-24T07:45:09.922Z,11.57
2018-09-24T07:50:05.669Z,11.51
2018-09-24T07:55:02.522Z,11.57
2018-09-24T07:59:58.551Z,11.65
2018-09-24T08:04:54.329Z,11.73
2018-09-24T08:09:50.444Z,11.88
2018-09-24T08:14:47.326Z,11.97
2018-09-24T08:19:43.151Z,12.00
2018-09-24T08:24:39.140Z,12.06
2018-09-24T08:29:35.914Z,12.22
2018-09-24T08:34:31.578Z,12.36
2018-09-24T08:39:28.508Z,12.39
2018-09-24T08:44:24.087Z,12.35
2018-09-24T08:49:20.870Z,12.49
2018-09-24T08:54:17.044Z,12.47
2018-09-24T08:59:13.803Z,12.50
2018-09-24T09:04:09.437Z,12.67
2018-09-24T09:09:06.419Z,12.80
2018-09-24T09:14:01.981Z,12.90
2018-09-24T09:18:58.109Z,12.91
2018-09-24T09:23:54.237Z,12.95
2018-09-24T09:28:50.173Z,13.01
2018-09-24T09:33:46.026Z,13.20
2018-09-24T09:38:42.926Z,13.18
2018-09-24T09:43:38.627Z,13.49
2018-09-24T09:48:34.819Z,13.79
2018-09-24T09:53:31.202Z,14.00
2018-09-24T09:58:27.508Z,14.07
2018-09-24T10:03:24.175Z,14.20
2018-09-24T10:08:20.749Z,14.20
2018-09-24T10:13:17.792Z,14.20
2018-09-24T10:18:13.694Z,14.43
2018-09-24T10:23:09.550Z,14.40
2018-09-24T10:28:05.415Z,14.29
2018-09-24T10:33:01.554Z,14.54
2018-09-24T10:37:58.638Z,14.77
2018-09-24T10:42:55.326Z,14.91
2018-09-24T10:47:50.824Z,14.73
2018-09-24T10:52:47.806Z,14.77
2018-09-24T10:57:43.121Z,14.51
2018-09-24T11:02:40.152Z,14.45
2018-09-24T11:07:36.857Z,14.26
2018-09-24T11:12:31.972Z,14.33
2018-09-24T11:17:29.519Z,15.17
2018-09-24T11:22:27.119Z,15.83
2018-09-24T11:27:23.613Z,15.94
2018-09-24T11:32:20.287Z,16.47
2018-09-24T11:37:15.839Z,15.98
2018-09-24T11:42:10.717Z,15.49
2018-09-24T11:47:06.401Z,15.35
2018-09-24T11:52:02.845Z,15.40
2018-09-24T11:56:58.508Z,15.51
2018-09-24T12:01:55.025Z,15.67
2018-09-24T12:06:51.401Z,15.76
2018-09-24T12:11:47.322Z,15.68
2018-09-24T12:16:42.785Z,15.33
2018-09-24T12:21:38.005Z,14.81
2018-09-24T12:26:33.173Z,13.89
2018-09-24T12:31:29.398Z,13.15
2018-09-24T12:36:24.520Z,12.85
2018-09-24T12:41:20.237Z,12.85
2018-09-24T12:46:17.005Z,13.00
2018-09-24T12:51:12.638Z,13.05
2018-09-24T12:56:08.685Z,13.18
2018-09-24T13:01:04.235Z,13.18
2018-09-24T13:06:01.019Z,12.98
2018-09-24T13:10:56.370Z,12.86
2018-09-24T13:15:52.234Z,12.85
2018-09-24T13:20:47.724Z,12.86
2018-09-24T13:25:43.627Z,12.85
2018-09-24T13:30:39.828Z,12.72
2018-09-24T13:35:36.011Z,12.86
2018-09-24T13:40:31.493Z,13.03
2018-09-24T13:45:29.292Z,13.39
2018-09-24T13:50:26.508Z,13.77
2018-09-24T13:55:22.819Z,14.17
2018-09-24T14:00:19.335Z,14.73
2018-09-24T14:05:15.891Z,14.94
2018-09-24T14:10:12.590Z,15.14
2018-09-24T14:15:08.303Z,14.92
2018-09-24T14:20:03.730Z,13.96
2018-09-24T14:24:58.748Z,13.28
2018-09-24T14:29:55.797Z,13.01
2018-09-24T14:34:50.818Z,12.80
2018-09-24T14:39:47.607Z,12.76
2018-09-24T14:44:44.173Z,12.78
2018-09-24T14:49:39.457Z,12.82
2018-09-24T14:54:35.083Z,12.98
2018-09-24T14:59:32.074Z,13.16
2018-09-24T15:04:27.636Z,13.31
2018-09-24T15:09:23.726Z,13.33
2018-09-24T15:14:20.063Z,13.44
2018-09-24T15:19:15.934Z,13.46
2018-09-24T15:24:11.785Z,13.28
2018-09-24T15:29:07.872Z,13.28
2018-09-24T15:34:03.664Z,13.33
2018-09-24T15:39:00.548Z,13.27
2018-09-24T15:43:56.200Z,13.27
2018-09-24T15:48:51.759Z,13.22
2018-09-24T15:53:48.878Z,13.19
2018-09-24T15:58:44.297Z,13.04
2018-09-24T16:03:40.835Z,13.09
2018-09-24T16:08:36.775Z,13.04
2018-09-24T16:13:32.753Z,13.16
2018-09-24T16:18:29.211Z,13.12
2018-09-24T16:23:26.039Z,13.13
2018-09-24T16:28:21.349Z,13.18
2018-09-24T16:33:17.334Z,13.18
2018-09-24T16:38:14.515Z,13.25
2018-09-24T16:43:11.098Z,13.37
2018-09-24T16:48:06.643Z,13.15
2018-09-24T16:53:02.149Z,12.98
2018-09-24T16:57:57.921Z,12.90
2018-09-24T17:02:53.809Z,12.82
2018-09-24T17:07:49.768Z,12.79
2018-09-24T17:12:45.516Z,12.68
2018-09-24T17:17:41.385Z,12.58
2018-09-24T17:22:37.357Z,12.35
2018-09-24T17:27:32.892Z,12.18
2018-09-24T17:32:28.581Z,12.17
2018-09-24T17:37:24.870Z,11.97
2018-09-24T17:42:20.946Z,11.80
2018-09-24T17:47:16.951Z,11.57
2018-09-24T17:52:12.839Z,11.55
2018-09-24T17:57:08.494Z,11.65
2018-09-24T18:02:04.310Z,11.59
2018-09-24T18:07:00.419Z,11.50
2018-09-24T18:11:56.134Z,11.40
2018-09-24T18:16:51.821Z,11.35
2018-09-24T18:21:47.907Z,11.18
2018-09-24T18:26:43.486Z,11.12
2018-09-24T18:31:40.747Z,10.93
2018-09-24T18:36:37.581Z,10.90
2018-09-24T18:41:32.908Z,10.84
2018-09-24T18:46:28.992Z,10.76
2018-09-24T18:51:24.955Z,10.74
2018-09-24T18:56:20.733Z,10.64
2018-09-24T19:01:16.383Z,10.63
2018-09-24T19:06:12.204Z,10.76
2018-09-24T19:11:08.181Z,10.61
2018-09-24T19:16:04.745Z,10.59
2018-09-24T19:21:01.132Z,10.59
2018-09-24T19:25:57.276Z,10.57
2018-09-24T19:30:53.820Z,10.44
2018-09-24T19:35:49.545Z,10.40
2018-09-24T19:40:45.263Z,10.42
2018-09-24T19:45:41.906Z,10.40
2018-09-24T19:50:37.394Z,10.38
2018-09-24T19:55:33.053Z,10.48
2018-09-24T20:00:28.842Z,10.49
2018-09-24T20:05:24.569Z,10.48
2018-09-24T20:10:21.565Z,10.49
2018-09-24T20:15:17.289Z,10.54
2018-09-24T20:20:14.130Z,10.51
2018-09-24T20:25:09.583Z,10.41
2018-09-24T20:30:05.247Z,10.30
2018-09-24T20:35:02.815Z,10.19
2018-09-24T20:39:59.036Z,10.07
2018-09-24T20:44:54.704Z,10.07
2018-09-24T20:49:50.444Z," 9.94"
2018-09-24T20:54:47.094Z," 9.97"
2018-09-24T20:59:42.468Z," 9.91"
2018-09-24T21:04:38.477Z," 9.91"
2018-09-24T21:09:35.191Z," 9.82"
2018-09-24T21:14:30.581Z," 9.80"
2018-09-24T21:19:27.263Z," 9.80"
2018-09-24T21:24:23.729Z," 9.77"
2018-09-24T21:29:19.232Z," 9.80"
2018-09-24T21:34:15.156Z," 9.77"
2018-09-24T21:39:10.983Z," 9.79"
2018-09-24T21:44:06.659Z," 9.73"
2018-09-24T21:49:04.125Z," 9.66"
2018-09-24T21:53:59.575Z," 9.66"
2018-09-24T21:58:55.356Z," 9.54"
2018-09-24T22:03:52.084Z," 9.59"
2018-09-24T22:08:47.594Z," 9.59"
2018-09-24T22:13:43.878Z," 9.58"
2018-09-24T22:18:40.438Z," 9.48"
2018-09-24T22:23:36.742Z," 9.50"
2018-09-24T22:28:32.609Z," 9.55"
2018-09-24T22:33:28.598Z," 9.54"
2018-09-24T22:38:24.366Z," 9.41"
2018-09-24T22:43:20.656Z," 9.47"
2018-09-24T22:48:16.323Z," 9.50"
2018-09-24T22:53:11.998Z," 9.46"
2018-09-24T22:58:07.501Z," 9.48"
2018-09-24T23:03:04.161Z," 9.40"
2018-09-24T23:08:00.007Z," 9.37"
2018-09-24T23:12:55.853Z," 9.28"
2018-09-24T23:17:52.691Z," 9.18"
2018-09-24T23:22:48.335Z," 9.16"
2018-09-24T23:27:45.023Z," 9.16"
2018-09-24T23:32:40.467Z," 9.16"
2018-09-24T23:37:36.069Z," 9.08"
2018-09-24T23:42:32.859Z," 9.00"
2018-09-24T23:47:28.245Z," 9.00"
2018-09-24T23:52:25.044Z," 9.14"
2018-09-24T23:57:20.483Z," 9.04"
